Time;durP1;ratioP1;P1;durP2;ratioP2;P2;SDS_P1;SDS_P2;PMS_P1;PMS_P2;Temp;Humidity;BMP_temperature;BMP_pressure;BME280_temperature;BME280_humidity;BME280_pressure;Samples;Min_cycle;Max_cycle;Signal;HPM_P1;HPM_P2
2021/06/17 00:01:04;;;;;;;2.67;1.20;;;17.30;66.60;;;;;;4974256;28;20066;-69
2021/06/17 00:03:32;;;;;;;2.63;1.02;;;17.30;66.50;;;;;;4976022;28;20042;-70
2021/06/17 00:06:01;;;;;;;2.17;0.90;;;17.30;66.30;;;;;;4976253;28;20055;-70
2021/06/17 00:08:29;;;;;;;2.65;1.20;;;17.40;66.20;;;;;;4942361;28;20389;-69
2021/06/17 00:10:58;;;;;;;2.92;1.00;;;17.40;66.00;;;;;;4959449;28;20046;-68
2021/06/17 00:13:28;;;;;;;3.53;1.05;;;17.40;65.80;;;;;;4957831;28;20385;-70
2021/06/17 00:15:58;;;;;;;4.55;1.23;;;17.40;65.80;;;;;;4958628;28;20058;-70
2021/06/17 00:18:28;;;;;;;2.47;0.90;;;17.40;65.70;;;;;;4958633;28;20401;-70
2021/06/17 00:20:58;;;;;;;2.22;0.80;;;17.30;65.60;;;;;;4974332;28;20050;-70
2021/06/17 00:23:26;;;;;;;4.70;1.10;;;17.30;65.60;;;;;;4943047;28;20054;-70
2021/06/17 00:25:56;;;;;;;2.63;1.05;;;17.30;65.50;;;;;;4975701;28;20062;-68
2021/06/17 00:28:26;;;;;;;2.85;0.80;;;17.30;65.30;;;;;;4974061;28;20051;-69
2021/06/17 00:30:54;;;;;;;3.28;0.90;;;17.30;65.10;;;;;;4959161;28;20057;-71
2021/06/17 00:33:23;;;;;;;2.75;1.00;;;17.30;65.00;;;;;;4975366;28;20051;-70
2021/06/17 00:35:51;;;;;;;3.08;0.70;;;17.30;65.00;;;;;;4975718;28;20062;-70
2021/06/17 00:38:19;;;;;;;1.65;0.77;;;17.30;64.90;;;;;;4958193;28;20047;-69
2021/06/17 00:40:51;;;;;;;4.50;0.90;;;17.30;64.70;;;;;;4974750;28;20059;-70
2021/06/17 00:43:19;;;;;;;2.45;0.90;;;17.30;64.60;;;;;;4959023;28;20055;-69
2021/06/17 00:45:53;;;;;;;5.63;1.33;;;17.30;64.60;;;;;;4943669;28;20051;-70
2021/06/17 00:48:21;;;;;;;6.75;1.10;;;17.40;64.40;;;;;;4958058;28;20047;-70
2021/06/17 00:50:53;;;;;;;2.55;0.90;;;17.40;64.30;;;;;;4976160;28;20051;-70
2021/06/17 00:53:33;;;;;;;3.03;0.88;;;17.40;64.20;;;;;;4957666;28;20062;-70
2021/06/17 00:56:03;;;;;;;4.38;0.82;;;17.40;64.10;;;;;;4975817;28;20039;-70
2021/06/17 00:58:31;;;;;;;2.08;0.95;;;17.50;64.00;;;;;;4959178;28;20054;-70
2021/06/17 01:01:00;;;;;;;4.68;1.00;;;17.50;63.90;;;;;;4964017;28;20046;-68
2021/06/17 01:03:28;;;;;;;4.32;0.98;;;17.50;63.70;;;;;;4978192;28;20091;-69
2021/06/17 01:05:57;;;;;;;1.42;0.70;;;17.60;63.60;;;;;;4994011;28;20461;-70
2021/06/17 01:08:44;;;;;;;2.20;0.90;;;17.60;63.60;;;;;;4976990;28;20054;-70
2021/06/17 01:11:31;;;;;;;2.53;1.00;;;17.50;63.50;;;;;;4962253;28;20050;-69
2021/06/17 01:14:12;;;;;;;2.55;0.85;;;17.50;63.50;;;;;;4977585;28;20066;-70
2021/06/17 01:16:40;;;;;;;3.88;0.70;;;17.50;63.50;;;;;;4975989;28;20050;-70
2021/06/17 01:19:15;;;;;;;2.90;0.90;;;17.50;63.40;;;;;;4975708;28;20051;-70
2021/06/17 01:21:52;;;;;;;3.03;0.90;;;17.50;63.20;;;;;;4973293;28;20351;-70
2021/06/17 01:24:52;;;;;;;2.95;0.60;;;17.50;63.10;;;;;;4959720;28;20050;-69
2021/06/17 01:27:37;;;;;;;4.72;1.00;;;17.50;63.10;;;;;;4989634;28;20492;-69
2021/06/17 01:30:09;;;;;;;4.78;0.90;;;17.50;63.10;;;;;;4995194;28;20464;-70
2021/06/17 01:32:46;;;;;;;2.40;0.80;;;17.50;63.10;;;;;;4961985;28;20361;-69
2021/06/17 01:35:20;;;;;;;3.35;0.70;;;17.50;63.10;;;;;;4994653;28;20066;-69
2021/06/17 01:37:51;;;;;;;4.68;1.08;;;17.50;63.00;;;;;;4999085;28;20055;-70
2021/06/17 01:40:19;;;;;;;3.40;0.85;;;17.50;63.00;;;;;;4997886;28;20077;-70
2021/06/17 01:42:48;;;;;;;3.25;0.93;;;17.50;63.00;;;;;;4991867;28;20055;-69
2021/06/17 01:45:17;;;;;;;2.92;0.82;;;17.50;63.00;;;;;;4961805;28;20058;-69
2021/06/17 01:47:47;;;;;;;1.77;0.70;;;17.50;63.00;;;;;;4977108;28;20057;-69
2021/06/17 01:50:16;;;;;;;4.53;1.05;;;17.50;63.00;;;;;;4978889;28;20055;-70
2021/06/17 01:52:46;;;;;;;6.35;1.00;;;17.50;63.10;;;;;;4979237;28;20077;-69
2021/06/17 01:55:15;;;;;;;2.63;0.85;;;17.50;63.10;;;;;;4977677;28;20055;-70
2021/06/17 01:57:46;;;;;;;2.38;0.95;;;17.50;63.20;;;;;;4978513;28;20080;-69
2021/06/17 02:00:15;;;;;;;2.78;1.10;;;17.40;63.30;;;;;;4977469;28;20065;-69
2021/06/17 02:02:44;;;;;;;6.18;1.35;;;17.30;63.60;;;;;;4970246;28;20389;-70
2021/06/17 02:05:13;;;;;;;5.03;1.25;;;17.30;63.80;;;;;;4977601;28;20058;-69
2021/06/17 02:07:44;;;;;;;3.55;1.30;;;17.20;64.10;;;;;;4977529;28;20058;-69
2021/06/17 02:10:19;;;;;;;7.10;1.60;;;17.20;64.40;;;;;;4978660;28;20059;-68
2021/06/17 02:12:48;;;;;;;2.72;1.23;;;17.10;64.50;;;;;;4978919;28;20281;-69
2021/06/17 02:15:18;;;;;;;5.90;1.48;;;17.10;64.60;;;;;;4977248;28;20047;-70
2021/06/17 02:17:49;;;;;;;4.03;1.20;;;17.10;64.80;;;;;;4978358;28;20055;-70
2021/06/17 02:20:19;;;;;;;4.90;1.10;;;17.00;65.00;;;;;;4977129;28;20062;-70
2021/06/17 02:22:49;;;;;;;4.25;1.48;;;17.00;65.10;;;;;;4978141;28;20059;-70
2021/06/17 02:25:18;;;;;;;4.50;1.63;;;16.90;65.20;;;;;;4978926;28;20058;-70
2021/06/17 02:27:52;;;;;;;5.80;1.45;;;17.00;65.30;;;;;;4975802;28;20391;-69
2021/06/17 02:30:21;;;;;;;6.88;1.60;;;16.90;65.20;;;;;;4961274;28;20055;-70
2021/06/17 02:32:51;;;;;;;5.35;1.55;;;16.90;65.20;;;;;;4978337;28;20075;-69
2021/06/17 02:35:22;;;;;;;4.68;1.58;;;16.90;65.20;;;;;;4976304;28;20465;-70
2021/06/17 02:37:54;;;;;;;5.57;1.77;;;16.80;65.20;;;;;;4977845;28;20061;-70
2021/06/17 02:40:24;;;;;;;5.57;1.83;;;16.80;65.20;;;;;;4959559;28;20047;-70
2021/06/17 02:43:08;;;;;;;3.90;1.70;;;16.80;65.30;;;;;;4978010;28;20061;-69
2021/06/17 02:45:37;;;;;;;5.57;1.95;;;16.80;65.70;;;;;;4960882;28;20070;-69
2021/06/17 02:48:07;;;;;;;8.10;1.95;;;16.80;66.00;;;;;;4975907;28;20070;-69
2021/06/17 02:50:35;;;;;;;7.53;1.80;;;16.80;66.40;;;;;;4974737;28;20062;-70
2021/06/17 02:53:04;;;;;;;6.72;1.92;;;16.70;66.60;;;;;;4985708;28;20069;-69
2021/06/17 02:55:32;;;;;;;8.00;2.20;;;16.60;67.00;;;;;;4966223;28;20062;-70
2021/06/17 02:58:39;;;;;;;5.70;2.10;;;16.60;67.30;;;;;;4981203;28;20054;-69
2021/06/17 03:01:29;;;;;;;5.35;1.70;;;16.60;67.60;;;;;;4925925;28;20362;-68
2021/06/17 03:04:14;;;;;;;5.57;2.10;;;16.60;67.60;;;;;;4964896;28;20055;-71
2021/06/17 03:06:47;;;;;;;7.03;2.30;;;16.60;67.80;;;;;;4976221;28;20377;-70
2021/06/17 03:09:45;;;;;;;8.40;1.98;;;16.50;68.10;;;;;;4977214;28;20050;-70
2021/06/17 03:12:16;;;;;;;6.18;1.80;;;16.50;68.40;;;;;;4974378;28;20042;-70
2021/06/17 03:14:48;;;;;;;7.82;2.20;;;16.50;68.50;;;;;;4976187;28;20058;-70
2021/06/17 03:17:19;;;;;;;9.82;2.30;;;16.50;68.70;;;;;;4977121;28;20377;-70
2021/06/17 03:19:50;;;;;;;5.95;1.75;;;16.50;68.90;;;;;;4987371;28;20054;-69
2021/06/17 03:22:20;;;;;;;8.43;1.95;;;16.40;69.00;;;;;;4996971;28;20058;-70
2021/06/17 03:24:52;;;;;;;6.78;1.92;;;16.40;69.00;;;;;;4996821;28;20054;-69
2021/06/17 03:27:20;;;;;;;8.90;2.08;;;16.40;69.10;;;;;;4994614;28;20054;-70
2021/06/17 03:29:51;;;;;;;4.47;1.80;;;16.40;69.00;;;;;;4996418;28;20046;-70
2021/06/17 03:32:21;;;;;;;6.50;1.70;;;16.30;69.00;;;;;;4996394;28;20057;-69
2021/06/17 03:34:49;;;;;;;5.65;1.88;;;16.30;69.00;;;;;;4995281;28;20062;-69
2021/06/17 03:37:20;;;;;;;7.32;2.17;;;16.30;69.10;;;;;;4996177;28;20061;-70
2021/06/17 03:39:51;;;;;;;7.38;2.25;;;16.30;69.20;;;;;;4995315;28;20077;-69
2021/06/17 03:42:21;;;;;;;8.35;2.10;;;16.30;69.40;;;;;;4993449;28;20066;-70
2021/06/17 03:44:51;;;;;;;6.10;1.65;;;16.30;69.70;;;;;;4976480;28;20046;-71
2021/06/17 03:47:23;;;;;;;5.47;1.58;;;16.20;70.10;;;;;;4975083;28;20055;-70
2021/06/17 03:49:54;;;;;;;4.25;1.52;;;16.30;69.90;;;;;;4976950;28;20051;-70
2021/06/17 03:52:24;;;;;;;8.18;2.00;;;16.20;69.70;;;;;;4959169;28;20054;-69
2021/06/17 03:54:55;;;;;;;6.38;2.00;;;16.20;69.70;;;;;;4975675;28;20477;-71
2021/06/17 03:57:24;;;;;;;8.40;1.60;;;16.20;69.70;;;;;;4976296;28;20381;-70
2021/06/17 03:59:56;;;;;;;8.00;2.05;;;16.20;69.70;;;;;;4975170;28;20481;-69
2021/06/17 04:02:27;;;;;;;6.05;1.77;;;16.10;69.50;;;;;;4976762;28;20485;-70
2021/06/17 04:04:55;;;;;;;5.70;1.88;;;16.10;69.50;;;;;;4943715;28;20047;-70
2021/06/17 04:07:26;;;;;;;7.72;1.85;;;16.10;69.60;;;;;;4942352;28;20358;-69
2021/06/17 04:09:57;;;;;;;9.85;2.10;;;16.10;69.60;;;;;;4976934;28;20497;-69
2021/06/17 04:12:29;;;;;;;8.70;2.10;;;16.10;69.80;;;;;;4975648;28;20085;-71
2021/06/17 04:14:59;;;;;;;6.03;2.03;;;16.10;70.00;;;;;;4973982;28;20381;-70
2021/06/17 04:17:32;;;;;;;7.90;1.70;;;16.10;70.00;;;;;;4975502;28;20073;-70
2021/06/17 04:20:00;;;;;;;6.45;1.85;;;16.10;70.10;;;;;;4974864;28;20426;-69
2021/06/17 04:22:29;;;;;;;7.32;1.88;;;16.10;70.20;;;;;;4975584;28;20066;-70
2021/06/17 04:25:03;;;;;;;9.85;2.17;;;16.10;70.60;;;;;;4976079;28;20143;-70
2021/06/17 04:27:34;;;;;;;5.82;1.75;;;16.00;70.60;;;;;;4958095;28;20061;-70
2021/06/17 04:30:03;;;;;;;6.30;1.77;;;16.00;70.50;;;;;;4975785;28;20062;-70
2021/06/17 04:32:31;;;;;;;7.45;1.63;;;16.00;70.60;;;;;;4975849;28;20056;-68
2021/06/17 04:35:00;;;;;;;6.82;1.52;;;16.00;70.80;;;;;;4974792;28;20054;-70
2021/06/17 04:37:28;;;;;;;7.05;2.13;;;16.00;71.00;;;;;;4975971;28;20473;-70
2021/06/17 04:39:59;;;;;;;9.70;2.00;;;16.00;71.00;;;;;;4974226;28;20054;-69
2021/06/17 04:42:28;;;;;;;7.55;1.90;;;16.00;71.00;;;;;;4975716;28;20482;-69
2021/06/17 04:44:57;;;;;;;7.70;1.95;;;16.00;70.90;;;;;;4975716;28;20070;-69
2021/06/17 04:47:25;;;;;;;5.25;1.42;;;16.00;70.80;;;;;;4974709;28;20057;-71
2021/06/17 04:49:53;;;;;;;11.88;1.58;;;16.00;70.90;;;;;;4975214;28;20063;-70
2021/06/17 04:52:31;;;;;;;7.88;1.85;;;15.90;70.80;;;;;;4975956;28;20059;-70
2021/06/17 04:54:59;;;;;;;13.27;2.05;;;15.90;70.80;;;;;;4974631;28;20468;-70
2021/06/17 04:57:27;;;;;;;6.97;1.80;;;15.90;70.90;;;;;;4975118;28;20051;-69
2021/06/17 04:59:55;;;;;;;6.05;1.60;;;15.90;70.90;;;;;;4957391;28;20051;-70
2021/06/17 05:02:24;;;;;;;7.82;1.95;;;15.90;70.80;;;;;;4975550;28;20055;-69
2021/06/17 05:04:51;;;;;;;7.60;1.77;;;15.90;70.90;;;;;;4958080;28;20054;-70
2021/06/17 05:10:49;;;;;;;6.70;1.50;;;16.00;71.30;;;;;;4976333;28;20081;-69
2021/06/17 05:12:46;;;;;;;7.90;1.80;;;16.00;71.30;;;;;;4967063;28;20066;-70
2021/06/17 05:15:15;;;;;;;9.10;1.80;;;16.00;71.20;;;;;;4978151;28;20473;-69
2021/06/17 05:17:43;;;;;;;9.90;1.80;;;16.00;71.00;;;;;;4979271;28;20058;-70
2021/06/17 05:20:11;;;;;;;5.30;1.50;;;16.00;70.90;;;;;;4978075;28;20046;-69
2021/06/17 05:22:44;;;;;;;4.90;1.50;;;15.90;70.90;;;;;;4978729;28;20069;-71
2021/06/17 05:25:13;;;;;;;8.40;1.73;;;15.90;71.00;;;;;;4962686;28;20066;-69
2021/06/17 05:27:42;;;;;;;8.32;1.63;;;15.90;71.00;;;;;;4960227;28;20051;-70
2021/06/17 05:30:12;;;;;;;4.65;1.50;;;15.90;70.90;;;;;;4977277;28;20500;-70
2021/06/17 05:32:42;;;;;;;8.65;1.92;;;15.90;70.90;;;;;;4978566;28;20059;-70
2021/06/17 05:35:11;;;;;;;6.88;1.70;;;15.90;70.90;;;;;;4978431;28;20062;-70
2021/06/17 05:37:40;;;;;;;6.70;1.95;;;15.90;70.80;;;;;;4962280;28;20062;-69
2021/06/17 05:40:08;;;;;;;14.07;2.05;;;15.80;70.80;;;;;;4977773;28;20054;-68
2021/06/17 05:42:36;;;;;;;6.40;1.92;;;15.90;70.70;;;;;;4977835;28;20050;-69
2021/06/17 05:45:05;;;;;;;7.97;2.10;;;15.90;70.70;;;;;;4978441;28;20465;-70
2021/06/17 05:47:33;;;;;;;9.73;1.90;;;15.90;70.90;;;;;;4977170;28;20070;-69
2021/06/17 05:50:01;;;;;;;8.13;2.10;;;15.90;70.80;;;;;;4978422;28;20054;-69
2021/06/17 05:52:29;;;;;;;11.65;2.33;;;15.90;70.70;;;;;;4962102;28;20066;-69
2021/06/17 05:54:57;;;;;;;11.43;1.70;;;15.90;70.70;;;;;;4977889;28;20477;-69
2021/06/17 05:57:25;;;;;;;9.93;1.83;;;15.90;70.70;;;;;;4977639;28;20055;-70
2021/06/17 05:59:53;;;;;;;10.13;2.00;;;15.90;70.60;;;;;;4976687;28;20050;-70
2021/06/17 06:02:25;;;;;;;13.27;2.35;;;15.90;70.60;;;;;;4976966;28;20053;-69
2021/06/17 06:04:53;;;;;;;10.05;1.85;;;16.00;70.60;;;;;;4979016;28;20047;-70
2021/06/17 06:07:21;;;;;;;10.00;2.20;;;16.00;70.60;;;;;;4976604;28;20046;-70
2021/06/17 06:09:48;;;;;;;13.10;2.00;;;15.90;70.60;;;;;;4978470;28;20393;-69
2021/06/17 06:12:16;;;;;;;12.38;2.92;;;15.90;70.70;;;;;;4961602;28;20066;-70
2021/06/17 06:14:44;;;;;;;6.75;1.80;;;15.90;70.60;;;;;;4976790;28;20393;-70
2021/06/17 06:17:12;;;;;;;14.95;2.25;;;16.00;70.50;;;;;;4978133;28;20389;-69
2021/06/17 06:19:40;;;;;;;11.38;1.90;;;16.00;70.40;;;;;;4976013;28;20046;-69
2021/06/17 06:22:08;;;;;;;12.18;2.33;;;16.00;70.30;;;;;;4958922;28;20047;-69
2021/06/17 06:24:38;;;;;;;12.02;2.15;;;16.00;70.10;;;;;;4960951;28;20051;-70
2021/06/17 06:27:07;;;;;;;7.80;2.00;;;15.90;70.00;;;;;;4976165;28;20055;-70
2021/06/17 06:29:36;;;;;;;13.20;2.13;;;15.90;70.10;;;;;;4960257;28;20047;-69
2021/06/17 06:32:05;;;;;;;19.25;2.15;;;15.90;70.20;;;;;;4960727;28;20066;-69
2021/06/17 06:34:33;;;;;;;7.30;2.00;;;15.90;70.10;;;;;;4969477;28;20054;-70
2021/06/17 06:37:02;;;;;;;10.60;1.77;;;15.90;70.00;;;;;;4960220;28;20502;-70
2021/06/17 06:39:30;;;;;;;10.35;1.85;;;15.90;69.90;;;;;;4978600;28;20058;-70
2021/06/17 06:41:58;;;;;;;21.23;2.10;;;15.90;69.80;;;;;;4975640;28;20050;-68
2021/06/17 06:44:27;;;;;;;12.55;1.95;;;15.90;69.70;;;;;;4968800;28;20465;-68
2021/06/17 06:46:59;;;;;;;7.63;1.83;;;16.00;69.80;;;;;;4976070;28;20476;-70
2021/06/17 06:49:27;;;;;;;9.85;2.03;;;16.00;69.70;;;;;;4977646;28;20058;-69
2021/06/17 06:51:55;;;;;;;9.65;1.92;;;16.10;69.60;;;;;;4977244;28;20062;-69
2021/06/17 06:54:23;;;;;;;8.82;2.15;;;16.10;69.60;;;;;;4959626;28;20062;-69
2021/06/17 06:56:51;;;;;;;10.10;1.90;;;16.10;69.50;;;;;;4960222;28;20062;-70
2021/06/17 06:59:19;;;;;;;9.07;1.80;;;16.20;69.50;;;;;;4977485;28;20051;-69
2021/06/17 07:01:47;;;;;;;6.97;1.80;;;16.20;69.50;;;;;;4975607;28;20042;-70
2021/06/17 07:04:15;;;;;;;9.60;1.90;;;16.20;69.40;;;;;;4977078;28;20120;-69
2021/06/17 07:06:42;;;;;;;11.82;2.53;;;16.30;69.30;;;;;;4975928;28;20496;-70
2021/06/17 07:09:11;;;;;;;9.32;1.73;;;16.30;69.00;;;;;;4975888;28;20377;-69
2021/06/17 07:11:38;;;;;;;9.35;1.88;;;16.30;68.90;;;;;;4977093;28;20398;-70
2021/06/17 07:14:07;;;;;;;15.85;2.20;;;16.30;68.90;;;;;;4975040;28;20043;-70
2021/06/17 07:16:35;;;;;;;7.50;1.85;;;16.30;68.70;;;;;;4974103;28;20050;-69
2021/06/17 07:19:06;;;;;;;8.02;1.83;;;16.30;68.60;;;;;;4976372;28;20055;-69
2021/06/17 07:21:34;;;;;;;12.57;1.85;;;16.40;68.60;;;;;;4969914;28;20054;-69
2021/06/17 07:24:04;;;;;;;8.70;1.85;;;16.40;68.50;;;;;;4977246;28;20371;-70
2021/06/17 07:26:32;;;;;;;9.43;1.67;;;16.40;68.40;;;;;;4975270;28;20043;-70
2021/06/17 07:29:03;;;;;;;7.55;1.52;;;16.50;68.30;;;;;;4976631;28;20046;-68
2021/06/17 07:31:31;;;;;;;15.07;1.85;;;16.50;68.20;;;;;;4960962;28;20114;-71
2021/06/17 07:34:00;;;;;;;11.60;2.15;;;16.50;68.10;;;;;;4974795;28;20081;-70
2021/06/17 07:36:28;;;;;;;9.50;1.85;;;16.50;68.00;;;;;;4959930;28;20051;-69
2021/06/17 07:38:56;;;;;;;5.82;1.80;;;16.50;68.00;;;;;;4975461;28;20051;-70
2021/06/17 07:41:24;;;;;;;9.50;1.92;;;16.50;67.90;;;;;;4975502;28;20051;-69
2021/06/17 07:43:52;;;;;;;8.18;1.95;;;16.50;67.90;;;;;;4975892;28;20055;-70
2021/06/17 07:46:20;;;;;;;9.48;2.03;;;16.60;67.90;;;;;;4943395;28;20050;-68
2021/06/17 07:48:49;;;;;;;18.98;2.28;;;16.60;67.80;;;;;;4974139;28;20051;-70
2021/06/17 07:51:18;;;;;;;15.30;2.00;;;16.60;67.60;;;;;;4976372;28;20055;-71
2021/06/17 07:53:46;;;;;;;12.93;2.05;;;16.60;67.50;;;;;;4974366;28;20062;-69
2021/06/17 07:56:14;;;;;;;8.98;2.13;;;16.60;67.40;;;;;;4976139;28;20078;-71
2021/06/17 07:58:43;;;;;;;10.02;2.10;;;16.70;67.30;;;;;;4975708;28;20055;-71
2021/06/17 08:01:11;;;;;;;7.55;1.60;;;16.70;67.10;;;;;;4975717;28;20051;-70
2021/06/17 08:03:39;;;;;;;10.25;1.95;;;16.80;66.80;;;;;;4976103;28;20078;-69
2021/06/17 08:06:08;;;;;;;9.77;1.85;;;16.80;66.60;;;;;;4971832;28;20046;-70
2021/06/17 08:08:37;;;;;;;10.40;1.73;;;16.80;66.50;;;;;;4956121;28;20051;-70
2021/06/17 08:11:05;;;;;;;7.15;1.85;;;16.80;66.50;;;;;;4970136;28;20055;-68
2021/06/17 08:13:49;;;;;;;9.70;1.95;;;16.80;66.40;;;;;;4974043;28;20059;-70
2021/06/17 08:16:17;;;;;;;8.38;2.10;;;16.90;66.20;;;;;;4975704;28;20069;-69
2021/06/17 08:18:46;;;;;;;11.48;2.00;;;17.00;66.00;;;;;;4958694;28;20477;-69
2021/06/17 08:21:14;;;;;;;8.73;1.75;;;17.10;65.80;;;;;;4974282;28;20066;-69
2021/06/17 08:23:42;;;;;;;8.38;1.83;;;17.20;65.60;;;;;;4959112;28;20050;-71
2021/06/17 08:26:10;;;;;;;11.32;2.08;;;17.20;65.50;;;;;;4957917;28;20054;-70
2021/06/17 08:28:38;;;;;;;10.13;2.00;;;17.30;65.40;;;;;;4957152;28;20431;-70
2021/06/17 08:31:06;;;;;;;11.10;1.73;;;17.40;65.10;;;;;;4975623;28;20058;-69
2021/06/17 08:33:36;;;;;;;13.07;1.88;;;17.40;64.90;;;;;;4974073;28;20059;-69
2021/06/17 08:36:08;;;;;;;20.85;2.05;;;17.40;64.90;;;;;;4959395;28;20066;-70
2021/06/17 08:38:36;;;;;;;10.50;1.85;;;17.50;64.70;;;;;;4975679;28;20499;-69
2021/06/17 08:41:06;;;;;;;12.60;1.80;;;17.60;64.50;;;;;;4974596;28;20047;-71
2021/06/17 08:43:52;;;;;;;11.63;2.17;;;17.60;64.40;;;;;;4974771;28;20054;-71
2021/06/17 08:46:35;;;;;;;15.93;2.30;;;17.70;64.30;;;;;;5134277;27;20556;-69
2021/06/17 08:49:04;;;;;;;12.52;2.17;;;17.70;64.00;;;;;;5106952;28;20483;-70
2021/06/17 08:51:33;;;;;;;14.13;2.15;;;17.70;63.80;;;;;;5118658;28;20059;-69
2021/06/17 08:54:06;;;;;;;13.38;2.45;;;17.70;63.70;;;;;;5131834;28;20051;-70
2021/06/17 08:56:35;;;;;;;26.00;2.47;;;17.70;63.60;;;;;;5119993;28;20062;-69
2021/06/17 08:59:05;;;;;;;16.80;2.35;;;17.70;63.50;;;;;;5112111;28;20052;-70
2021/06/17 09:01:33;;;;;;;17.08;2.50;;;17.80;63.60;;;;;;5122043;28;20055;-70
2021/06/17 09:04:18;;;;;;;18.38;2.15;;;17.80;63.70;;;;;;5113431;27;20044;-69
2021/06/17 09:07:11;;;;;;;17.27;2.70;;;17.80;63.60;;;;;;5107041;28;20051;-70
2021/06/17 09:09:45;;;;;;;47.80;4.45;;;17.80;63.50;;;;;;5098411;28;20056;-68
2021/06/17 09:12:19;;;;;;;13.82;2.53;;;17.80;63.50;;;;;;5106642;28;20060;-70
2021/06/17 09:15:04;;;;;;;17.25;2.38;;;17.80;63.30;;;;;;5107665;28;20382;-70
2021/06/17 09:17:35;;;;;;;10.85;2.30;;;17.80;63.20;;;;;;5109801;28;20421;-70
2021/06/17 09:20:10;;;;;;;8.65;2.10;;;17.90;63.20;;;;;;5107819;28;20047;-70
2021/06/17 09:22:41;;;;;;;10.75;2.25;;;17.90;63.10;;;;;;5110315;28;20067;-70
2021/06/17 09:25:11;;;;;;;13.07;2.20;;;17.90;63.30;;;;;;5075741;28;20062;-70
2021/06/17 09:27:40;;;;;;;10.52;2.08;;;17.90;63.20;;;;;;5109609;28;20052;-70
2021/06/17 09:30:12;;;;;;;13.40;2.50;;;17.80;63.10;;;;;;5109699;28;20799;-69
2021/06/17 09:32:53;;;;;;;10.35;2.63;;;17.90;63.10;;;;;;5093066;28;20059;-70
2021/06/17 09:35:25;;;;;;;632.38;67.30;;;17.80;63.10;;;;;;5108423;28;20052;-71
2021/06/17 09:38:05;;;;;;;527.75;39.67;;;17.80;63.10;;;;;;5091970;28;20063;-71
2021/06/17 09:40:37;;;;;;;72.60;6.18;;;17.80;63.00;;;;;;5109590;28;20641;-69
2021/06/17 09:43:19;;;;;;;10.98;2.92;;;17.90;62.80;;;;;;5110502;28;20048;-69
2021/06/17 09:45:57;;;;;;;9.20;2.10;;;17.80;62.60;;;;;;5110116;28;20052;-70
2021/06/17 09:48:32;;;;;;;10.93;2.28;;;17.80;62.40;;;;;;5109155;28;20475;-71
2021/06/17 09:51:26;;;;;;;8.80;2.15;;;17.80;62.30;;;;;;5110284;28;20071;-68
2021/06/17 09:54:21;;;;;;;8.43;2.35;;;17.90;62.30;;;;;;5109299;28;20470;-69
2021/06/17 09:56:51;;;;;;;8.93;2.08;;;17.90;62.30;;;;;;5101715;28;20059;-70
2021/06/17 09:59:51;;;;;;;10.43;2.22;;;17.90;62.30;;;;;;5096755;28;20067;-69
2021/06/17 10:02:45;;;;;;;14.57;2.25;;;18.00;62.40;;;;;;5096577;28;20071;-70
2021/06/17 10:05:22;;;;;;;8.80;2.13;;;18.10;62.20;;;;;;5075958;28;20056;-70
2021/06/17 10:07:50;;;;;;;1999.90;306.80;;;18.20;62.20;;;;;;5095327;28;20056;-70
2021/06/17 10:10:22;;;;;;;599.78;61.45;;;18.20;62.00;;;;;;5077784;28;20059;-71
2021/06/17 10:12:50;;;;;;;25.65;3.00;;;18.30;61.80;;;;;;5096362;28;20083;-69
2021/06/17 10:15:18;;;;;;;10.02;1.98;;;18.40;61.50;;;;;;5094300;28;20063;-69
2021/06/17 10:17:47;;;;;;;11.00;2.33;;;18.60;61.00;;;;;;5096170;28;20052;-69
2021/06/17 10:20:14;;;;;;;13.88;2.42;;;18.70;60.60;;;;;;5095160;28;20052;-69
2021/06/17 10:22:44;;;;;;;10.77;2.10;;;18.80;60.30;;;;;;5096084;28;20059;-69
2021/06/17 10:25:24;;;;;;;16.58;2.75;;;18.90;60.20;;;;;;5078433;28;20071;-69
2021/06/17 10:27:57;;;;;;;16.88;2.10;;;19.00;60.10;;;;;;5094962;28;20051;-69
2021/06/17 10:30:39;;;;;;;10.45;1.88;;;19.20;60.00;;;;;;5078259;28;20063;-69
2021/06/17 10:33:07;;;;;;;35.72;3.88;;;19.30;59.70;;;;;;5094896;28;20122;-69
2021/06/17 10:35:36;;;;;;;344.20;27.90;;;19.40;59.60;;;;;;5094857;28;20048;-69
2021/06/17 10:38:08;;;;;;;12.00;2.00;;;19.50;58.80;;;;;;5095975;28;20496;-69
2021/06/17 10:40:43;;;;;;;64.78;6.70;;;19.60;58.20;;;;;;5094910;28;20052;-69
2021/06/17 10:43:19;;;;;;;769.38;74.07;;;19.70;57.30;;;;;;5095192;28;20052;-69
2021/06/17 10:45:50;;;;;;;27.70;2.80;;;19.80;56.90;;;;;;5094932;28;20067;-69
2021/06/17 10:48:25;;;;;;;14.77;2.08;;;19.80;56.80;;;;;;5094549;28;20060;-69
2021/06/17 10:51:10;;;;;;;12.07;2.00;;;20.00;56.50;;;;;;5095760;28;20059;-69
2021/06/17 10:53:39;;;;;;;12.02;2.25;;;20.20;55.80;;;;;;5094549;28;20079;-69
2021/06/17 10:56:38;;;;;;;16.10;2.38;;;20.40;55.50;;;;;;5095270;28;20048;-69
2021/06/17 10:59:06;;;;;;;12.02;2.15;;;20.60;55.00;;;;;;5077877;28;20378;-69
2021/06/17 11:01:45;;;;;;;5.57;1.90;;;20.80;54.70;;;;;;5094270;28;20134;-69
2021/06/17 11:04:19;;;;;;;10.10;1.95;;;20.80;54.30;;;;;;5095406;28;20052;-69
2021/06/17 11:06:50;;;;;;;;;;;20.80;53.70;;;;;;5094708;28;20484;-69
2021/06/17 11:09:39;;;;;;;16.40;2.40;;;20.90;53.10;;;;;;5094349;28;20357;-69
2021/06/17 11:12:13;;;;;;;10.98;1.98;;;20.90;53.30;;;;;;5076870;28;20052;-69
2021/06/17 11:14:43;;;;;;;13.48;2.13;;;20.90;53.20;;;;;;5075573;28;20059;-69
2021/06/17 11:17:32;;;;;;;18.30;2.35;;;21.00;53.30;;;;;;5093909;28;20052;-69
2021/06/17 11:20:22;;;;;;;849.80;91.18;;;21.10;52.90;;;;;;5073752;28;20049;-69
2021/06/17 11:22:58;;;;;;;981.00;94.75;;;21.10;52.50;;;;;;5057047;28;20044;-69
2021/06/17 11:25:31;;;;;;;10.45;2.28;;;21.20;52.40;;;;;;5074619;28;20466;-69
2021/06/17 11:28:06;;;;;;;11.65;2.20;;;21.30;52.40;;;;;;5073327;28;20386;-70
2021/06/17 11:30:41;;;;;;;15.98;2.13;;;21.30;52.20;;;;;;5074539;28;20474;-69
2021/06/17 11:33:18;;;;;;;15.85;2.42;;;21.30;51.70;;;;;;5073660;28;20501;-69
2021/06/17 11:35:58;;;;;;;17.05;2.40;;;21.20;51.30;;;;;;5074383;28;20475;-69
2021/06/17 11:38:30;;;;;;;16.60;3.13;;;21.10;51.10;;;;;;5073934;28;20413;-69
2021/06/17 11:40:59;;;;;;;23.48;2.53;;;21.10;50.90;;;;;;5056064;28;20083;-69
2021/06/17 11:43:29;;;;;;;20.50;2.42;;;21.00;51.00;;;;;;5086459;28;20067;-69
2021/06/17 11:45:57;;;;;;;13.20;2.42;;;20.90;51.30;;;;;;5094188;28;20075;-69
2021/06/17 11:48:26;;;;;;;13.60;2.53;;;20.90;51.40;;;;;;5092757;28;20078;-69
2021/06/17 11:50:56;;;;;;;16.67;2.83;;;20.80;51.80;;;;;;5094590;28;20052;-69
2021/06/17 11:53:26;;;;;;;17.00;2.95;;;20.80;52.40;;;;;;5092514;28;20087;-69
2021/06/17 11:55:56;;;;;;;19.05;2.90;;;20.80;52.90;;;;;;5094169;28;20048;-69
2021/06/17 11:58:31;;;;;;;18.90;2.45;;;20.80;53.10;;;;;;5094425;28;20051;-69
2021/06/17 12:01:07;;;;;;;22.55;2.60;;;20.90;53.00;;;;;;5093188;28;20056;-69
2021/06/17 12:03:35;;;;;;;748.38;74.70;;;21.00;52.90;;;;;;5076736;28;20060;-69
2021/06/17 12:06:13;;;;;;;792.83;83.82;;;21.00;52.80;;;;;;5094176;28;20067;-69
2021/06/17 12:08:41;;;;;;;21.52;2.55;;;21.10;52.70;;;;;;5075732;28;20063;-69
2021/06/17 12:11:24;;;;;;;11.40;2.42;;;21.10;52.40;;;;;;5076425;28;20063;-69
2021/06/17 12:13:53;;;;;;;19.35;2.47;;;21.20;51.90;;;;;;5083962;28;20062;-69
2021/06/17 12:16:22;;;;;;;14.88;3.08;;;21.30;51.90;;;;;;5072513;28;20055;-69
2021/06/17 12:18:50;;;;;;;58.95;4.05;;;21.30;51.90;;;;;;5093218;28;20059;-69
2021/06/17 12:21:33;;;;;;;14.65;2.42;;;21.30;52.00;;;;;;5074358;28;20052;-69
2021/06/17 12:24:01;;;;;;;13.90;2.55;;;21.30;52.00;;;;;;5093469;28;20067;-69
2021/06/17 12:26:34;;;;;;;10.35;2.75;;;21.20;52.10;;;;;;5093342;28;20066;-69
2021/06/17 12:29:10;;;;;;;13.40;2.10;;;21.30;52.20;;;;;;5093622;28;20355;-69
2021/06/17 12:31:40;;;;;;;12.10;2.58;;;21.20;52.30;;;;;;5094288;28;20052;-69
2021/06/17 12:34:12;;;;;;;15.13;2.45;;;21.20;52.10;;;;;;5092975;28;20055;-69
2021/06/17 12:36:42;;;;;;;12.35;2.95;;;21.10;51.90;;;;;;5077333;28;20052;-69
2021/06/17 12:39:14;;;;;;;8.10;2.08;;;21.00;51.80;;;;;;5077128;28;20044;-69
2021/06/17 12:41:48;;;;;;;7.47;1.73;;;21.10;51.80;;;;;;5093401;28;20044;-69
2021/06/17 12:44:40;;;;;;;14.32;2.03;;;21.10;51.80;;;;;;5091630;28;20048;-68
2021/06/17 12:47:22;;;;;;;10.85;2.47;;;21.20;51.90;;;;;;5080523;28;20492;-69
2021/06/17 12:52:40;;;;;;;16.77;2.53;;;21.50;52.10;;;;;;5073334;28;20497;-69
2021/06/17 12:55:11;;;;;;;30.13;3.03;;;21.60;52.30;;;;;;5072264;28;20467;-69
2021/06/17 12:57:41;;;;;;;16.00;2.50;;;21.60;52.40;;;;;;5073247;28;20417;-69
2021/06/17 13:00:12;;;;;;;12.85;2.20;;;21.70;52.60;;;;;;5072140;28;20056;-69
2021/06/17 13:02:46;;;;;;;10.50;2.25;;;21.70;52.50;;;;;;5055496;28;20382;-69
2021/06/17 13:05:18;;;;;;;10.95;2.10;;;21.60;52.50;;;;;;5075036;28;20785;-69
2021/06/17 13:08:12;;;;;;;9.10;2.25;;;21.60;52.40;;;;;;5091324;28;20485;-69
2021/06/17 13:10:44;;;;;;;11.35;2.50;;;21.60;52.40;;;;;;5073482;28;20063;-69
2021/06/17 13:13:18;;;;;;;10.98;2.17;;;21.50;52.40;;;;;;5073436;28;20752;-69